createdAt,value
2019-05-05T00:00:30.679Z,11.10
2019-05-05T00:03:14.659Z,9.50
2019-05-05T00:05:46.215Z,9.53
2019-05-05T00:08:18.084Z,7.57
2019-05-05T00:11:09.380Z,7.63
2019-05-05T00:13:50.252Z,8.07
2019-05-05T00:16:47.226Z,8.70
2019-05-05T00:19:29.842Z,8.63
2019-05-05T00:21:52.736Z,8.47
2019-05-05T00:24:25.606Z,8.20
2019-05-05T00:26:57.760Z,8.23
2019-05-05T00:29:29.645Z,8.40
2019-05-05T00:32:01.521Z,8.07
2019-05-05T00:34:35.007Z,8.70
2019-05-05T00:37:07.254Z,8.30
2019-05-05T00:39:39.047Z,9.50
2019-05-05T00:42:11.286Z,9.97
2019-05-05T00:44:44.691Z,9.00
2019-05-05T00:47:50.916Z,10.40
2019-05-05T00:50:25.253Z,7.73
2019-05-05T00:52:57.642Z,9.40
2019-05-05T00:55:29.426Z,13.40
2019-05-05T00:58:01.453Z,10.20
2019-05-05T01:00:52.118Z,6.70
2019-05-05T01:03:26.802Z,7.90
2019-05-05T01:06:07.830Z,6.80
2019-05-05T01:08:39.924Z,8.17
2019-05-05T01:11:14.334Z,6.93
2019-05-05T01:13:45.846Z,7.93
2019-05-05T01:16:17.676Z,6.50
2019-05-05T01:18:49.409Z,6.73
2019-05-05T01:21:21.199Z,6.07
2019-05-05T01:23:54.863Z,6.47
2019-05-05T01:26:26.718Z,4.77
2019-05-05T01:28:58.551Z,6.80
2019-05-05T01:31:30.424Z,6.23
2019-05-05T01:34:24.530Z,4.10
2019-05-05T01:37:04.774Z,4.83
2019-05-05T01:39:54.257Z,4.03
2019-05-05T01:42:26.303Z,3.43
2019-05-05T01:44:58.093Z,3.90
2019-05-05T01:47:29.870Z,4.00
2019-05-05T01:50:15.191Z,2.60
2019-05-05T01:52:35.388Z,3.70
2019-05-05T01:55:07.492Z,3.50
2019-05-05T01:57:40.048Z,3.53
2019-05-05T02:00:12.223Z,3.67
2019-05-05T02:02:45.000Z,4.17
2019-05-05T02:05:18.207Z,3.43
2019-05-05T02:07:49.953Z,3.03
2019-05-05T02:10:22.737Z,4.53
2019-05-05T02:12:55.201Z,3.17
2019-05-05T02:15:28.834Z,3.60
2019-05-05T02:18:00.610Z,4.03
2019-05-05T02:21:05.936Z,3.10
2019-05-05T02:23:38.767Z,3.40
2019-05-05T02:26:11.096Z,3.80
2019-05-05T02:28:59.077Z,3.60
2019-05-05T02:31:41.343Z,3.30
2019-05-05T02:34:16.293Z,3.40
2019-05-05T02:36:46.805Z,3.17
2019-05-05T02:39:18.534Z,2.57
2019-05-05T02:41:51.138Z,3.40
2019-05-05T02:44:25.521Z,2.80
2019-05-05T02:47:08.699Z,2.57
2019-05-05T02:49:45.362Z,2.87
2019-05-05T02:52:19.642Z,2.93
2019-05-05T02:54:53.626Z,2.60
2019-05-05T02:57:27.422Z,2.83
2019-05-05T03:00:05.122Z,2.43
2019-05-05T03:02:38.800Z,2.50
2019-05-05T03:05:14.282Z,2.67
2019-05-05T03:07:46.506Z,2.80
2019-05-05T03:10:18.450Z,2.43
2019-05-05T03:12:51.266Z,2.40
2019-05-05T03:15:46.940Z,2.40
2019-05-05T03:18:19.454Z,2.30
2019-05-05T03:21:03.946Z,2.00
2019-05-05T03:23:25.948Z,2.13
2019-05-05T03:25:57.911Z,2.07
2019-05-05T03:28:40.936Z,2.60
2019-05-05T03:31:16.071Z,2.10
2019-05-05T03:33:48.241Z,2.03
2019-05-05T03:36:21.179Z,1.80
2019-05-05T03:38:55.233Z,1.53
2019-05-05T03:41:36.075Z,2.10
2019-05-05T03:44:29.805Z,2.07
2019-05-05T03:47:03.559Z,1.70
2019-05-05T03:49:36.173Z,1.87
2019-05-05T03:52:08.300Z,2.17
2019-05-05T03:54:40.833Z,2.30
2019-05-05T03:57:14.095Z,1.40
2019-05-05T03:59:47.941Z,1.93
2019-05-05T04:02:28.636Z,2.17
2019-05-05T04:05:07.964Z,2.20
2019-05-05T04:07:40.994Z,2.60
2019-05-05T04:10:14.121Z,2.07
2019-05-05T04:12:47.526Z,2.43
2019-05-05T04:15:19.573Z,2.97
2019-05-05T04:18:00.223Z,2.00
2019-05-05T04:20:38.037Z,2.13
2019-05-05T04:23:10.088Z,1.80
2019-05-05T04:25:43.871Z,1.50
2019-05-05T04:28:15.358Z,1.93
2019-05-05T04:30:47.315Z,1.63
2019-05-05T04:33:19.098Z,1.40
2019-05-05T04:35:51.140Z,1.40
2019-05-05T04:38:24.319Z,1.50
2019-05-05T04:40:56.720Z,1.97
2019-05-05T04:43:28.528Z,1.97
2019-05-05T04:46:00.345Z,1.63
2019-05-05T04:48:46.944Z,1.50
2019-05-05T04:51:24.494Z,1.40
2019-05-05T04:54:14.235Z,1.50
2019-05-05T04:56:46.588Z,1.37
2019-05-05T04:59:18.356Z,1.90
2019-05-05T05:01:54.477Z,1.33
2019-05-05T05:04:38.628Z,1.40
2019-05-05T05:07:10.468Z,1.80
2019-05-05T05:09:43.462Z,1.47
2019-05-05T05:12:15.567Z,1.40
2019-05-05T05:14:47.400Z,1.80
2019-05-05T05:17:26.174Z,1.70
2019-05-05T05:19:57.965Z,1.50
2019-05-05T05:22:29.982Z,1.50
2019-05-05T05:25:04.313Z,1.63
2019-05-05T05:27:35.748Z,1.30
2019-05-05T05:30:07.957Z,1.40
2019-05-05T05:32:40.090Z,1.73
2019-05-05T05:35:13.930Z,1.43
2019-05-05T05:37:46.674Z,1.30
2019-05-05T05:40:24.322Z,1.87
2019-05-05T05:42:57.977Z,1.50
2019-05-05T05:45:43.691Z,1.30
2019-05-05T05:48:28.729Z,1.27
2019-05-05T05:51:04.174Z,1.60
2019-05-05T05:53:36.408Z,1.30
2019-05-05T05:56:08.272Z,1.77
2019-05-05T05:58:40.141Z,1.23
2019-05-05T06:01:11.862Z,1.43
2019-05-05T06:03:44.338Z,1.20
2019-05-05T06:06:16.365Z,1.30
2019-05-05T06:08:48.219Z,1.70
2019-05-05T06:11:20.420Z,1.80
2019-05-05T06:13:54.385Z,1.13
2019-05-05T06:16:26.231Z,1.40
2019-05-05T06:18:58.092Z,1.50
2019-05-05T06:21:29.844Z,1.40
2019-05-05T06:24:01.645Z,1.67
2019-05-05T06:26:34.567Z,1.70
2019-05-05T06:29:07.753Z,1.70
2019-05-05T06:31:39.615Z,1.37
2019-05-05T06:34:13.848Z,1.37
2019-05-05T06:36:45.177Z,1.73
2019-05-05T06:39:17.140Z,2.03
2019-05-05T06:41:58.659Z,1.57
2019-05-05T06:44:44.209Z,1.50
2019-05-05T06:47:19.299Z,2.20
2019-05-05T06:49:51.160Z,1.47
2019-05-05T06:52:24.722Z,1.37
2019-05-05T06:54:56.476Z,1.80
2019-05-05T06:57:28.254Z,1.20
2019-05-05T07:00:00.180Z,1.37
2019-05-05T07:02:34.170Z,1.47
2019-05-05T07:05:05.981Z,1.50
2019-05-05T07:07:37.754Z,1.30
2019-05-05T07:10:09.816Z,1.60
2019-05-05T07:12:43.823Z,1.63
2019-05-05T07:15:15.345Z,1.60
2019-05-05T07:17:47.199Z,1.57
2019-05-05T07:20:19.012Z,1.20
2019-05-05T07:23:01.491Z,1.70
2019-05-05T07:25:24.725Z,1.53
2019-05-05T07:27:56.652Z,1.37
2019-05-05T07:30:29.705Z,1.77
2019-05-05T07:33:01.542Z,1.90
2019-05-05T07:35:56.130Z,1.40
2019-05-05T07:38:15.767Z,1.60
2019-05-05T07:40:47.878Z,1.83
2019-05-05T07:43:19.656Z,1.77
2019-05-05T07:45:53.874Z,1.40
2019-05-05T07:48:25.032Z,1.43
2019-05-05T07:51:01.494Z,1.10
2019-05-05T07:53:33.541Z,1.43
2019-05-05T07:56:07.622Z,1.10
2019-05-05T07:58:39.114Z,1.30
2019-05-05T08:01:11.067Z,1.43
2019-05-05T08:03:44.630Z,1.40
2019-05-05T08:06:16.390Z,1.83
2019-05-05T08:08:48.186Z,2.30
2019-05-05T08:11:20.454Z,1.73
2019-05-05T08:13:52.200Z,1.53
2019-05-05T08:16:40.449Z,1.40
2019-05-05T08:19:30.079Z,1.43
2019-05-05T08:22:03.682Z,1.90
2019-05-05T08:25:06.942Z,1.50
2019-05-05T08:27:57.040Z,1.17
2019-05-05T08:30:41.406Z,0.97
2019-05-05T08:33:14.077Z,1.00
2019-05-05T08:35:46.158Z,1.00
2019-05-05T08:38:18.291Z,0.93
2019-05-05T08:40:50.259Z,1.10
2019-05-05T08:43:24.144Z,1.00
2019-05-05T08:45:55.883Z,0.90
2019-05-05T08:48:27.708Z,1.10
2019-05-05T08:50:59.508Z,1.10
2019-05-05T08:53:42.496Z,0.90
2019-05-05T08:56:05.244Z,1.27
2019-05-05T08:58:37.580Z,1.40
2019-05-05T09:01:09.364Z,1.00
2019-05-05T09:03:41.515Z,1.03
2019-05-05T09:06:13.837Z,1.10
2019-05-05T09:08:46.039Z,1.13
2019-05-05T09:11:17.821Z,1.73
2019-05-05T09:13:50.492Z,1.83
2019-05-05T09:16:24.115Z,2.07
2019-05-05T09:19:09.672Z,2.33
2019-05-05T09:21:41.697Z,1.80
2019-05-05T09:24:41.771Z,2.10
2019-05-05T09:27:47.499Z,2.73
2019-05-05T09:30:25.939Z,1.87
2019-05-05T09:32:57.871Z,1.80
2019-05-05T09:35:29.766Z,2.33
2019-05-05T09:38:03.982Z,1.80
2019-05-05T09:40:43.798Z,2.90
2019-05-05T09:43:15.227Z,1.60
2019-05-05T09:45:47.452Z,1.43
2019-05-05T09:48:19.327Z,1.60
2019-05-05T09:50:51.230Z,1.33
2019-05-05T09:53:23.764Z,1.40
2019-05-05T09:55:56.825Z,1.47
2019-05-05T09:58:28.660Z,1.63
2019-05-05T10:01:00.769Z,0.83
2019-05-05T10:03:34.058Z,1.60
2019-05-05T10:06:06.131Z,2.10
2019-05-05T10:08:38.008Z,1.27
2019-05-05T10:11:10.063Z,1.53
2019-05-05T10:13:44.135Z,1.97
2019-05-05T10:16:16.254Z,2.10
2019-05-05T10:18:48.365Z,1.80
2019-05-05T10:21:20.599Z,2.33
2019-05-05T10:23:54.151Z,2.40
2019-05-05T10:26:26.462Z,2.40
2019-05-05T10:29:01.131Z,2.62
2019-05-05T10:31:32.225Z,2.22
2019-05-05T10:34:06.000Z,2.30
2019-05-05T10:36:39.136Z,2.10
2019-05-05T10:39:17.311Z,2.52
2019-05-05T10:41:49.255Z,2.73
2019-05-05T10:44:21.024Z,2.70
2019-05-05T10:46:53.953Z,2.60
2019-05-05T10:49:25.981Z,2.60
2019-05-05T10:51:58.086Z,2.80
2019-05-05T10:54:43.203Z,2.50
2019-05-05T10:57:04.013Z,2.60
2019-05-05T10:59:36.154Z,3.03
2019-05-05T11:02:08.800Z,3.70
2019-05-05T11:04:40.667Z,3.20
2019-05-05T11:07:14.534Z,3.03
2019-05-05T11:09:46.353Z,3.07
2019-05-05T11:12:18.825Z,4.03
2019-05-05T11:14:50.678Z,3.53
2019-05-05T11:17:24.836Z,4.07
2019-05-05T11:19:56.648Z,3.10
2019-05-05T11:22:28.687Z,3.80
2019-05-05T11:25:01.270Z,3.47
2019-05-05T11:27:34.524Z,3.50
2019-05-05T11:30:17.801Z,2.43
2019-05-05T11:33:07.946Z,1.67
2019-05-05T11:35:49.442Z,1.40
2019-05-05T11:38:21.744Z,1.40
2019-05-05T11:40:54.633Z,1.50
2019-05-05T11:43:27.028Z,1.50
2019-05-05T11:45:59.035Z,1.60
2019-05-05T11:48:31.224Z,1.40
2019-05-05T11:51:04.508Z,1.43
2019-05-05T11:53:38.031Z,1.70
2019-05-05T11:56:09.888Z,1.50
2019-05-05T11:58:44.041Z,1.90
2019-05-05T12:01:15.477Z,1.55
2019-05-05T12:03:48.157Z,1.60
2019-05-05T12:06:20.043Z,1.40
2019-05-05T12:08:52.417Z,1.60
2019-05-05T12:11:24.324Z,1.87
2019-05-05T12:13:56.621Z,1.90
2019-05-05T12:16:34.705Z,1.72
2019-05-05T12:19:13.558Z,1.70
2019-05-05T12:21:45.115Z,1.63
2019-05-05T12:24:24.808Z,1.55
2019-05-05T12:27:13.995Z,1.92
2019-05-05T12:29:50.600Z,1.45
2019-05-05T12:32:24.132Z,1.50
2019-05-05T12:34:56.608Z,1.40
2019-05-05T12:37:28.648Z,1.45
2019-05-05T12:40:00.679Z,1.10
2019-05-05T12:42:32.723Z,1.50
2019-05-05T12:45:08.034Z,1.10
2019-05-05T12:47:58.200Z,1.50
2019-05-05T12:50:30.410Z,1.20
2019-05-05T12:53:04.050Z,1.50
2019-05-05T12:55:41.494Z,1.52
2019-05-05T12:58:10.313Z,1.30
2019-05-05T13:00:44.972Z,1.77
2019-05-05T13:03:17.175Z,1.92
2019-05-05T13:05:49.377Z,1.95
2019-05-05T13:08:23.452Z,1.67
2019-05-05T13:10:55.792Z,2.58
2019-05-05T13:13:27.819Z,1.60
2019-05-05T13:16:00.023Z,1.72
2019-05-05T13:18:33.970Z,1.50
2019-05-05T13:21:15.697Z,1.55
2019-05-05T13:23:59.890Z,1.32
2019-05-05T13:26:41.385Z,1.52
2019-05-05T13:29:13.960Z,2.00
2019-05-05T13:31:46.461Z,2.10
2019-05-05T13:34:18.457Z,2.02
2019-05-05T13:36:50.452Z,1.42
2019-05-05T13:39:24.577Z,1.22
2019-05-05T13:41:56.434Z,0.93
2019-05-05T13:44:47.192Z,1.70
2019-05-05T13:47:19.399Z,1.50
2019-05-05T13:49:51.400Z,1.80
2019-05-05T13:52:24.507Z,2.30
2019-05-05T13:54:56.446Z,1.40
2019-05-05T13:57:28.482Z,1.40
2019-05-05T14:00:03.658Z,1.50
2019-05-05T14:02:37.067Z,1.57
2019-05-05T14:05:09.435Z,1.32
2019-05-05T14:07:43.676Z,1.40
2019-05-05T14:10:15.719Z,1.20
2019-05-05T14:12:47.617Z,1.42
2019-05-05T14:15:20.914Z,1.27
2019-05-05T14:17:54.374Z,1.70
2019-05-05T14:20:26.683Z,1.20
2019-05-05T14:22:58.836Z,1.50
2019-05-05T14:25:31.865Z,1.05
2019-05-05T14:28:03.999Z,1.40
2019-05-05T14:30:54.234Z,1.40
2019-05-05T14:33:34.112Z,1.70
2019-05-05T14:36:14.150Z,1.70
2019-05-05T14:38:53.788Z,1.50
2019-05-05T14:41:25.568Z,1.40
2019-05-05T14:43:57.604Z,1.47
2019-05-05T14:46:29.373Z,1.07
2019-05-05T14:49:01.232Z,1.52
2019-05-05T14:51:34.211Z,1.30
2019-05-05T14:54:06.898Z,1.20
2019-05-05T14:56:38.675Z,1.02
2019-05-05T14:59:10.637Z,1.35
2019-05-05T15:01:44.532Z,1.35
2019-05-05T15:04:17.960Z,1.27
2019-05-05T15:07:17.518Z,1.37
2019-05-05T15:10:08.353Z,1.20
2019-05-05T15:12:44.697Z,1.22
2019-05-05T15:15:17.607Z,1.40
2019-05-05T15:17:49.505Z,1.40
2019-05-05T15:20:21.723Z,1.20
2019-05-05T15:22:54.128Z,1.20
2019-05-05T15:25:26.971Z,0.98
2019-05-05T15:27:58.879Z,1.47
2019-05-05T15:30:31.106Z,1.15
2019-05-05T15:33:04.635Z,1.30
2019-05-05T15:35:36.888Z,0.90
2019-05-05T15:38:08.750Z,1.10
2019-05-05T15:40:40.905Z,0.80
2019-05-05T15:43:14.275Z,1.25
2019-05-05T15:45:47.510Z,1.10
2019-05-05T15:48:19.401Z,0.75
2019-05-05T15:50:51.349Z,1.10
2019-05-05T15:53:23.518Z,0.90
2019-05-05T15:55:56.092Z,0.98
2019-05-05T15:58:27.906Z,1.20
2019-05-05T16:00:59.870Z,1.15
2019-05-05T16:03:31.680Z,0.95
2019-05-05T16:06:03.920Z,1.00
2019-05-05T16:08:36.290Z,1.30
2019-05-05T16:11:08.548Z,0.88
2019-05-05T16:13:40.706Z,1.20
2019-05-05T16:16:28.666Z,0.82
2019-05-05T16:19:27.908Z,1.85
2019-05-05T16:22:03.763Z,1.75
2019-05-05T16:24:37.433Z,1.10
2019-05-05T16:27:19.488Z,1.20
2019-05-05T16:29:44.493Z,1.25
2019-05-05T16:32:21.649Z,1.20
2019-05-05T16:34:50.320Z,1.70
2019-05-05T16:37:23.596Z,1.40
2019-05-05T16:39:56.074Z,1.22
2019-05-05T16:42:28.347Z,1.30
2019-05-05T16:45:00.224Z,1.02
2019-05-05T16:47:33.638Z,1.17
2019-05-05T16:50:06.295Z,1.70
2019-05-05T16:52:43.486Z,1.50
2019-05-05T16:55:25.867Z,1.55
2019-05-05T16:57:57.941Z,1.37
2019-05-05T17:00:29.867Z,1.00
2019-05-05T17:03:04.073Z,1.40
2019-05-05T17:05:35.805Z,1.67
2019-05-05T17:08:08.074Z,2.87
2019-05-05T17:10:40.011Z,2.83
2019-05-05T17:13:21.448Z,1.40
2019-05-05T17:16:21.224Z,2.10
2019-05-05T17:19:19.907Z,1.40
2019-05-05T17:22:10.116Z,2.65
2019-05-05T17:24:44.026Z,1.47
2019-05-05T17:27:16.678Z,1.30
2019-05-05T17:29:48.612Z,1.67
2019-05-05T17:32:20.929Z,1.10
2019-05-05T17:34:54.111Z,1.22
2019-05-05T17:37:26.337Z,1.47
2019-05-05T17:40:07.162Z,1.80
2019-05-05T17:43:03.920Z,1.63
2019-05-05T17:45:55.088Z,1.80
2019-05-05T17:48:35.587Z,1.30
2019-05-05T17:51:26.691Z,1.30
2019-05-05T17:54:16.147Z,1.40
2019-05-05T17:56:48.531Z,1.27
2019-05-05T17:59:20.479Z,1.30
2019-05-05T18:01:54.020Z,1.95
2019-05-05T18:04:26.136Z,1.70
2019-05-05T18:07:20.959Z,1.50
2019-05-05T18:10:14.159Z,1.93
2019-05-05T18:12:58.282Z,2.03
2019-05-05T18:15:48.339Z,1.47
2019-05-05T18:18:20.677Z,1.40
2019-05-05T18:20:54.261Z,1.50
2019-05-05T18:23:26.354Z,2.20
2019-05-05T18:25:58.289Z,2.13
2019-05-05T18:28:30.506Z,1.97
2019-05-05T18:31:05.462Z,1.90
2019-05-05T18:33:36.991Z,2.07
2019-05-05T18:36:09.695Z,2.00
2019-05-05T18:38:44.476Z,2.00
2019-05-05T18:41:23.715Z,2.10
2019-05-05T18:44:15.126Z,2.30
2019-05-05T18:46:48.635Z,2.20
2019-05-05T18:49:23.239Z,2.27
2019-05-05T18:51:54.825Z,2.40
2019-05-05T18:54:26.958Z,2.00
2019-05-05T18:56:58.836Z,2.17
2019-05-05T18:59:31.288Z,2.87
2019-05-05T19:02:34.650Z,2.57
2019-05-05T19:05:25.403Z,2.73
2019-05-05T19:08:09.350Z,2.93
2019-05-05T19:10:43.285Z,3.70
2019-05-05T19:13:14.782Z,3.57
2019-05-05T19:15:46.974Z,4.00
2019-05-05T19:18:20.100Z,3.67
2019-05-05T19:20:57.518Z,4.00
2019-05-05T19:23:29.473Z,3.83
2019-05-05T19:26:03.809Z,3.50
2019-05-05T19:28:44.289Z,3.27
2019-05-05T19:31:14.070Z,3.63
2019-05-05T19:33:47.048Z,4.00
2019-05-05T19:36:19.367Z,3.67
2019-05-05T19:38:51.324Z,3.87
2019-05-05T19:41:23.860Z,3.77
2019-05-05T19:43:56.121Z,3.50
2019-05-05T19:46:34.752Z,4.03
2019-05-05T19:49:17.865Z,3.20
2019-05-05T19:51:50.703Z,3.60
2019-05-05T19:54:25.823Z,3.27
2019-05-05T19:56:57.890Z,3.33
2019-05-05T19:59:29.757Z,3.80
2019-05-05T20:02:03.631Z,3.80
2019-05-05T20:04:35.516Z,3.60
2019-05-05T20:07:07.623Z,3.27
2019-05-05T20:09:43.402Z,3.40
2019-05-05T20:12:15.458Z,3.80
2019-05-05T20:14:47.400Z,3.97
2019-05-05T20:17:25.419Z,4.03
2019-05-05T20:19:57.330Z,4.40
2019-05-05T20:22:29.440Z,3.53
2019-05-05T20:25:01.407Z,3.80
2019-05-05T20:27:34.337Z,3.30
2019-05-05T20:30:08.627Z,3.80
2019-05-05T20:32:56.059Z,3.97
2019-05-05T20:35:37.530Z,4.10
2019-05-05T20:38:14.162Z,3.70
2019-05-05T20:40:48.743Z,3.90
2019-05-05T20:43:20.656Z,4.13
2019-05-05T20:45:53.809Z,4.20
2019-05-05T20:48:26.046Z,4.40
2019-05-05T20:50:58.423Z,4.30
2019-05-05T20:53:30.429Z,4.77
2019-05-05T20:56:04.330Z,5.10
2019-05-05T20:58:36.407Z,4.97
2019-05-05T21:01:08.390Z,4.67
2019-05-05T21:03:40.315Z,5.33
2019-05-05T21:06:13.821Z,4.97
2019-05-05T21:08:45.832Z,4.67
2019-05-05T21:11:17.699Z,5.00
2019-05-05T21:13:49.775Z,4.83
2019-05-05T21:16:23.622Z,4.63
2019-05-05T21:18:55.534Z,4.50
2019-05-05T21:21:29.384Z,4.63
2019-05-05T21:24:04.075Z,4.43
2019-05-05T21:26:49.268Z,4.60
2019-05-05T21:29:23.637Z,4.83
2019-05-05T21:31:55.989Z,4.60
2019-05-05T21:34:28.265Z,5.20
2019-05-05T21:37:00.538Z,5.03
2019-05-05T21:39:34.950Z,5.97
2019-05-05T21:42:07.343Z,6.87
2019-05-05T21:44:39.373Z,7.07
2019-05-05T21:47:11.266Z,6.13
2019-05-05T21:49:43.307Z,7.27
2019-05-05T21:52:25.117Z,7.77
2019-05-05T21:55:16.329Z,7.50
2019-05-05T21:57:58.851Z,7.13
2019-05-05T22:00:48.476Z,6.07
2019-05-05T22:03:27.939Z,6.50
2019-05-05T22:06:00.513Z,6.53
2019-05-05T22:08:33.650Z,6.50
2019-05-05T22:11:09.273Z,6.00
2019-05-05T22:13:41.051Z,6.07
2019-05-05T22:16:13.632Z,5.93
2019-05-05T22:18:46.704Z,6.53
2019-05-05T22:21:31.321Z,6.43
2019-05-05T22:24:35.738Z,5.93
2019-05-05T22:27:07.567Z,6.20
2019-05-05T22:29:39.375Z,7.00
2019-05-05T22:32:11.299Z,6.57
2019-05-05T22:34:44.387Z,6.27
2019-05-05T22:37:17.904Z,5.47
2019-05-05T22:39:49.824Z,5.73
2019-05-05T22:42:21.941Z,5.27
2019-05-05T22:44:54.353Z,5.93
2019-05-05T22:47:26.689Z,5.90
2019-05-05T22:49:58.804Z,6.17
2019-05-05T22:52:31.019Z,5.70
2019-05-05T22:55:04.579Z,5.43
2019-05-05T22:57:36.466Z,5.30
2019-05-05T23:00:25.733Z,6.03
2019-05-05T23:02:54.921Z,7.23
2019-05-05T23:05:39.513Z,6.77
2019-05-05T23:08:13.556Z,7.90
2019-05-05T23:10:45.613Z,8.97
2019-05-05T23:13:17.730Z,8.93
2019-05-05T23:15:57.098Z,9.33
2019-05-05T23:18:29.289Z,7.73
2019-05-05T23:21:34.167Z,8.30
2019-05-05T23:24:27.764Z,7.00
2019-05-05T23:26:59.676Z,7.53
2019-05-05T23:29:31.509Z,7.93
2019-05-05T23:32:03.350Z,8.00
2019-05-05T23:34:35.274Z,7.70
2019-05-05T23:37:08.182Z,7.13
2019-05-05T23:39:39.998Z,6.90
2019-05-05T23:42:11.767Z,7.40
2019-05-05T23:44:43.884Z,7.33
2019-05-05T23:47:15.713Z,8.00
2019-05-05T23:49:47.812Z,7.07
2019-05-05T23:52:19.579Z,7.23
2019-05-05T23:54:51.941Z,6.93
2019-05-05T23:57:24.571Z,7.43
2019-05-05T23:59:57.811Z,8.47
